createdAt,value
2019-05-20T00:00:22.541Z,0.00
2019-05-20T00:05:22.481Z,0.00
2019-05-20T00:10:22.432Z,0.00
2019-05-20T00:15:22.429Z,0.00
2019-05-20T00:20:22.351Z,0.00
2019-05-20T00:25:25.420Z,0.00
2019-05-20T00:30:22.198Z,0.00
2019-05-20T00:35:22.102Z,0.00
2019-05-20T00:40:22.011Z,0.00
2019-05-20T00:45:21.957Z,0.00
2019-05-20T00:50:21.896Z,0.00
2019-05-20T00:55:21.846Z,0.00
2019-05-20T01:00:21.852Z,0.00
2019-05-20T01:05:21.779Z,0.00
2019-05-20T01:10:21.976Z,0.00
2019-05-20T01:15:21.623Z,0.00
2019-05-20T01:20:21.667Z,0.00
2019-05-20T01:25:21.579Z,0.00
2019-05-20T01:30:21.690Z,0.00
2019-05-20T01:35:21.482Z,0.00
2019-05-20T01:40:21.558Z,0.00
2019-05-20T01:45:21.521Z,0.00
2019-05-20T01:50:21.418Z,0.00
2019-05-20T01:55:21.350Z,0.00
2019-05-20T02:00:28.123Z,0.00
2019-05-20T02:05:21.285Z,0.00
2019-05-20T02:10:21.179Z,0.00
2019-05-20T02:15:21.117Z,0.00
2019-05-20T02:20:21.220Z,0.00
2019-05-20T02:25:21.244Z,0.00
2019-05-20T02:30:21.024Z,0.00
2019-05-20T02:35:21.277Z,0.00
2019-05-20T02:40:21.182Z,0.00
2019-05-20T02:45:20.841Z,0.00
2019-05-20T02:50:20.763Z,0.00
2019-05-20T02:55:20.719Z,0.00
2019-05-20T03:00:20.659Z,0.00
2019-05-20T03:05:20.611Z,0.00
2019-05-20T03:10:20.796Z,4.00
2019-05-20T03:15:20.571Z,8.00
2019-05-20T03:20:20.554Z,16.00
2019-05-20T03:25:20.474Z,28.00
2019-05-20T03:30:22.181Z,48.00
2019-05-20T03:35:20.540Z,80.00
2019-05-20T03:40:20.354Z,108.00
2019-05-20T03:45:20.375Z,148.00
2019-05-20T03:50:20.238Z,152.00
2019-05-20T03:55:20.339Z,192.00
2019-05-20T04:00:20.121Z,240.00
2019-05-20T04:05:20.109Z,332.00
2019-05-20T04:10:20.044Z,384.00
2019-05-20T04:15:20.099Z,548.00
2019-05-20T04:20:19.998Z,668.00
2019-05-20T04:25:19.990Z,632.00
2019-05-20T04:30:21.979Z,656.00
2019-05-20T04:35:23.126Z,988.00
2019-05-20T04:40:20.010Z,1124.00
2019-05-20T04:45:19.766Z,1048.00
2019-05-20T04:50:21.042Z,1072.00
2019-05-20T04:55:19.627Z,1156.00
2019-05-20T05:00:20.366Z,1428.00
2019-05-20T05:05:19.657Z,2316.00
2019-05-20T05:10:19.522Z,2756.00
2019-05-20T05:15:19.402Z,3224.00
2019-05-20T05:20:19.375Z,3648.00
2019-05-20T05:25:20.599Z,4840.00
2019-05-20T05:30:19.290Z,4648.00
2019-05-20T05:35:21.644Z,6668.00
2019-05-20T05:40:19.555Z,8492.00
2019-05-20T05:45:19.330Z,7572.00
2019-05-20T05:50:19.274Z,7460.00
2019-05-20T05:55:19.269Z,8216.00
2019-05-20T06:00:19.051Z,9956.00
2019-05-20T06:05:19.127Z,10160.00
2019-05-20T06:10:28.219Z,13432.00
2019-05-20T06:15:19.920Z,17312.00
2019-05-20T06:20:19.021Z,16444.00
2019-05-20T06:25:18.941Z,18816.00
2019-05-20T06:30:18.968Z,15340.00
2019-05-20T06:35:18.672Z,10848.00
2019-05-20T06:40:18.672Z,11008.00
2019-05-20T06:45:18.589Z,13140.00
2019-05-20T06:50:18.563Z,17312.00
2019-05-20T06:55:18.488Z,15896.00
2019-05-20T07:00:18.483Z,16060.00
2019-05-20T07:05:18.641Z,13592.00
2019-05-20T07:10:18.509Z,13580.00
2019-05-20T07:15:18.755Z,18624.00
2019-05-20T07:20:18.477Z,15352.00
2019-05-20T07:25:18.377Z,17344.00
2019-05-20T07:30:18.193Z,18144.00
2019-05-20T07:35:29.430Z,17952.00
2019-05-20T07:40:19.156Z,22048.00
2019-05-20T07:45:19.252Z,21184.00
2019-05-20T07:50:18.350Z,20672.00
2019-05-20T07:55:18.036Z,24704.00
2019-05-20T08:00:17.899Z,23616.00
2019-05-20T08:05:17.859Z,25760.00
2019-05-20T08:10:17.939Z,23488.00
2019-05-20T08:15:17.779Z,27776.00
2019-05-20T08:20:17.781Z,31872.00
2019-05-20T08:25:17.790Z,33824.00
2019-05-20T08:30:18.031Z,34816.00
2019-05-20T08:35:17.719Z,29088.00
2019-05-20T08:40:17.605Z,29344.00
2019-05-20T08:45:17.587Z,26848.00
2019-05-20T08:50:17.491Z,20992.00
2019-05-20T08:55:17.535Z,22208.00
2019-05-20T09:00:22.986Z,27840.00
2019-05-20T09:05:18.468Z,21600.00
2019-05-20T09:10:18.355Z,18688.00
2019-05-20T09:15:17.243Z,16608.00
2019-05-20T09:20:18.479Z,23488.00
2019-05-20T09:25:18.245Z,33824.00
2019-05-20T09:30:17.436Z,38304.00
2019-05-20T09:35:17.093Z,21056.00
2019-05-20T09:40:17.055Z,21280.00
2019-05-20T09:45:17.042Z,19936.00
2019-05-20T09:50:17.028Z,21600.00
2019-05-20T09:55:16.891Z,28992.00
2019-05-20T10:00:16.904Z,34080.00
2019-05-20T10:05:16.813Z,46368.00
2019-05-20T10:10:16.774Z,39136.00
2019-05-20T10:15:16.742Z,43424.00
2019-05-20T10:20:16.703Z,27232.00
2019-05-20T10:25:16.617Z,35264.00
2019-05-20T10:30:16.604Z,27936.00
2019-05-20T10:35:16.556Z,31872.00
2019-05-20T10:40:16.514Z,60192.00
2019-05-20T10:45:16.534Z,65184.00
2019-05-20T10:50:16.408Z,83072.00
2019-05-20T10:55:17.360Z,62816.00
2019-05-20T11:00:16.368Z,53376.00
2019-05-20T11:05:16.692Z,53344.00
2019-05-20T11:10:16.298Z,70784.00
2019-05-20T11:15:16.280Z,49472.00
2019-05-20T11:20:16.240Z,38688.00
2019-05-20T11:25:16.179Z,44544.00
2019-05-20T11:30:16.266Z,56160.00
2019-05-20T11:35:16.167Z,41024.00
2019-05-20T11:40:16.054Z,25216.00
2019-05-20T11:45:16.180Z,38112.00
2019-05-20T11:50:16.034Z,19168.00
2019-05-20T11:55:16.649Z,22400.00
2019-05-20T12:00:15.918Z,45024.00
2019-05-20T12:05:15.894Z,24544.00
2019-05-20T12:10:15.787Z,27072.00
2019-05-20T12:15:15.815Z,33760.00
2019-05-20T12:20:15.714Z,33344.00
2019-05-20T12:25:15.688Z,46176.00
2019-05-20T12:30:15.689Z,27872.00
2019-05-20T12:35:15.744Z,22336.00
2019-05-20T12:40:15.577Z,37888.00
2019-05-20T12:45:15.506Z,39712.00
2019-05-20T12:50:15.538Z,59264.00
2019-05-20T12:55:15.425Z,23104.00
2019-05-20T13:00:15.397Z,19008.00
2019-05-20T13:05:15.317Z,18752.00
2019-05-20T13:10:28.905Z,31168.00
2019-05-20T13:15:16.237Z,20448.00
2019-05-20T13:20:15.343Z,22592.00
2019-05-20T13:25:15.519Z,39040.00
2019-05-20T13:30:15.151Z,25600.00
2019-05-20T13:35:15.098Z,23552.00
2019-05-20T13:40:15.631Z,20544.00
2019-05-20T13:45:15.005Z,17856.00
2019-05-20T13:50:14.981Z,26752.00
2019-05-20T13:55:15.247Z,19520.00
2019-05-20T14:00:15.016Z,19136.00
2019-05-20T14:05:14.928Z,13232.00
2019-05-20T14:10:14.790Z,11780.00
2019-05-20T14:15:14.865Z,13756.00
2019-05-20T14:20:14.801Z,14456.00
2019-05-20T14:25:14.661Z,15200.00
2019-05-20T14:30:14.632Z,10432.00
2019-05-20T14:35:14.594Z,14056.00
2019-05-20T14:40:14.848Z,18016.00
2019-05-20T14:45:14.480Z,20800.00
2019-05-20T14:50:14.549Z,18752.00
2019-05-20T14:55:14.371Z,15908.00
2019-05-20T15:00:14.352Z,15212.00
2019-05-20T15:05:14.478Z,10416.00
2019-05-20T15:10:14.259Z,14640.00
2019-05-20T15:15:14.259Z,18368.00
2019-05-20T15:20:14.260Z,14440.00
2019-05-20T15:25:14.182Z,12292.00
2019-05-20T15:30:14.108Z,12216.00
2019-05-20T15:35:14.074Z,10208.00
2019-05-20T15:40:14.025Z,10904.00
2019-05-20T15:45:14.092Z,13132.00
2019-05-20T15:50:14.220Z,12304.00
2019-05-20T15:55:13.985Z,11560.00
2019-05-20T16:00:14.031Z,8732.00
2019-05-20T16:05:13.831Z,7260.00
2019-05-20T16:10:14.073Z,5152.00
2019-05-20T16:15:13.721Z,6896.00
2019-05-20T16:20:13.678Z,9728.00
2019-05-20T16:25:13.647Z,6668.00
2019-05-20T16:30:13.607Z,5188.00
2019-05-20T16:35:13.621Z,4936.00
2019-05-20T16:40:13.439Z,6096.00
2019-05-20T16:45:13.527Z,5184.00
2019-05-20T16:50:13.858Z,5460.00
2019-05-20T16:55:13.340Z,5184.00
2019-05-20T17:00:29.839Z,4944.00
2019-05-20T17:05:14.281Z,5692.00
2019-05-20T17:10:14.340Z,5220.00
2019-05-20T17:15:13.176Z,5588.00
2019-05-20T17:20:13.140Z,4176.00
2019-05-20T17:25:13.087Z,3756.00
2019-05-20T17:30:13.164Z,3240.00
2019-05-20T17:35:13.032Z,3192.00
2019-05-20T17:40:12.956Z,4032.00
2019-05-20T17:45:12.933Z,3644.00
2019-05-20T17:50:12.856Z,3368.00
2019-05-20T17:55:12.884Z,2992.00
2019-05-20T18:00:12.947Z,2624.00
2019-05-20T18:05:14.844Z,2288.00
2019-05-20T18:10:12.738Z,2280.00
2019-05-20T18:15:12.619Z,1860.00
2019-05-20T18:20:12.613Z,1684.00
2019-05-20T18:25:12.595Z,1528.00
2019-05-20T18:30:12.644Z,1468.00
2019-05-20T18:35:12.385Z,1260.00
2019-05-20T18:40:14.463Z,1028.00
2019-05-20T18:45:13.345Z,976.00
2019-05-20T18:50:12.308Z,852.00
2019-05-20T18:55:12.243Z,636.00
2019-05-20T19:00:12.193Z,524.00
2019-05-20T19:05:12.140Z,500.00
2019-05-20T19:10:12.145Z,340.00
2019-05-20T19:15:12.085Z,268.00
2019-05-20T19:20:12.050Z,168.00
2019-05-20T19:25:12.238Z,104.00
2019-05-20T19:30:11.984Z,64.00
2019-05-20T19:35:11.847Z,36.00
2019-05-20T19:40:11.825Z,20.00
2019-05-20T19:45:11.808Z,8.00
2019-05-20T19:50:12.070Z,4.00
2019-05-20T19:55:11.710Z,0.00
2019-05-20T20:00:11.728Z,4.00
2019-05-20T20:05:12.820Z,0.00
2019-05-20T20:10:11.646Z,0.00
2019-05-20T20:15:11.549Z,0.00
2019-05-20T20:20:11.453Z,0.00
2019-05-20T20:25:11.418Z,0.00
2019-05-20T20:30:11.329Z,0.00
2019-05-20T20:35:11.317Z,0.00
2019-05-20T20:40:11.205Z,0.00
2019-05-20T20:45:11.176Z,0.00
2019-05-20T20:50:11.146Z,0.00
2019-05-20T20:55:11.166Z,0.00
2019-05-20T21:00:11.382Z,0.00
2019-05-20T21:05:11.006Z,0.00
2019-05-20T21:10:11.017Z,0.00
2019-05-20T21:15:10.909Z,0.00
2019-05-20T21:20:10.860Z,0.00
2019-05-20T21:25:11.041Z,0.00
2019-05-20T21:30:10.784Z,0.00
2019-05-20T21:35:10.812Z,0.00
2019-05-20T21:40:10.819Z,0.00
2019-05-20T21:45:10.678Z,0.00
2019-05-20T21:50:10.697Z,0.00
2019-05-20T21:55:10.595Z,0.00
2019-05-20T22:00:10.563Z,0.00
2019-05-20T22:05:10.469Z,0.00
2019-05-20T22:10:10.410Z,0.00
2019-05-20T22:15:10.372Z,0.00
2019-05-20T22:20:10.317Z,0.00
2019-05-20T22:25:10.540Z,0.00
2019-05-20T22:30:10.325Z,0.00
2019-05-20T22:35:10.629Z,0.00
2019-05-20T22:40:10.187Z,0.00
2019-05-20T22:45:10.135Z,0.00
2019-05-20T22:50:10.065Z,0.00
2019-05-20T22:55:10.019Z,0.00
2019-05-20T23:00:10.046Z,0.00
2019-05-20T23:05:10.051Z,0.00
2019-05-20T23:10:10.149Z,0.00
2019-05-20T23:15:09.835Z,0.00
2019-05-20T23:20:09.930Z,0.00
2019-05-20T23:25:09.751Z,0.00
2019-05-20T23:30:09.710Z,0.00
2019-05-20T23:35:09.655Z,0.00
2019-05-20T23:40:09.664Z,0.00
2019-05-20T23:45:09.654Z,0.00
2019-05-20T23:50:09.541Z,0.00
2019-05-20T23:55:09.497Z,0.00
